sensor_id;sensor_type;location;lat;lon;timestamp;pressure;altitude;pressure_sealevel;temperature;humidity
42621;BME280;28252;53.336;-6.298;2023-07-13T00:00:22;100789.44;;;23.33;100.00
42621;BME280;28252;53.336;-6.298;2023-07-13T00:01:03;100784.00;;;23.33;100.00
42621;BME280;28252;53.336;-6.298;2023-07-13T00:01:37;100785.03;;;23.31;100.00
42621;BME280;28252;53.336;-6.298;2023-07-13T00:02:14;100791.13;;;23.34;100.00
42621;BME280;28252;53.336;-6.298;2023-07-13T00:02:45;100790.28;;;23.33;100.00
42621;BME280;28252;53.336;-6.298;2023-07-13T00:03:16;100784.00;;;23.33;100.00
42621;BME280;28252;53.336;-6.298;2023-07-13T00:03:47;100784.84;;;23.33;100.00
42621;BME280;28252;53.336;-6.298;2023-07-13T00:04:22;100789.44;;;23.33;100.00
42621;BME280;28252;53.336;-6.298;2023-07-13T00:04:58;100784.84;;;23.33;100.00
42621;BME280;28252;53.336;-6.298;2023-07-13T00:05:31;100791.13;;;23.34;100.00
42621;BME280;28252;53.336;-6.298;2023-07-13T00:06:02;100784.00;;;23.33;100.00
42621;BME280;28252;53.336;-6.298;2023-07-13T00:06:33;100791.13;;;23.34;100.00
42621;BME280;28252;53.336;-6.298;2023-07-13T00:07:08;100789.44;;;23.33;100.00
42621;BME280;28252;53.336;-6.298;2023-07-13T00:07:42;100799.28;;;23.34;100.00
42621;BME280;28252;53.336;-6.298;2023-07-13T00:08:17;100787.56;;;23.33;100.00
42621;BME280;28252;53.336;-6.298;2023-07-13T00:08:51;100789.44;;;23.33;100.00
42621;BME280;28252;53.336;-6.298;2023-07-13T00:09:22;100789.44;;;23.33;100.00
42621;BME280;28252;53.336;-6.298;2023-07-13T00:09:57;100791.31;;;23.32;100.00
42621;BME280;28252;53.336;-6.298;2023-07-13T00:10:32;100787.56;;;23.33;100.00
42621;BME280;28252;53.336;-6.298;2023-07-13T00:11:05;100785.03;;;23.31;100.00
42621;BME280;28252;53.336;-6.298;2023-07-13T00:11:36;100792.16;;;23.33;100.00
42621;BME280;28252;53.336;-6.298;2023-07-13T00:12:21;100789.44;;;23.33;100.00
42621;BME280;28252;53.336;-6.298;2023-07-13T00:12:53;100784.00;;;23.33;100.00
42621;BME280;28252;53.336;-6.298;2023-07-13T00:13:25;100790.28;;;23.33;100.00
42621;BME280;28252;53.336;-6.298;2023-07-13T00:13:56;100787.75;;;23.31;100.00
42621;BME280;28252;53.336;-6.298;2023-07-13T00:14:34;100789.44;;;23.33;100.00
42621;BME280;28252;53.336;-6.298;2023-07-13T00:15:17;100783.16;;;23.32;100.00
42621;BME280;28252;53.336;-6.298;2023-07-13T00:15:54;100789.44;;;23.33;100.00
42621;BME280;28252;53.336;-6.298;2023-07-13T00:16:26;100788.59;;;23.32;100.00
42621;BME280;28252;53.336;-6.298;2023-07-13T00:16:57;100788.59;;;23.32;100.00
42621;BME280;28252;53.336;-6.298;2023-07-13T00:17:36;100790.28;;;23.33;100.00
42621;BME280;28252;53.336;-6.298;2023-07-13T00:18:14;100787.56;;;23.33;100.00
42621;BME280;28252;53.336;-6.298;2023-07-13T00:18:47;100789.44;;;23.33;100.00
42621;BME280;28252;53.336;-6.298;2023-07-13T00:19:20;100788.59;;;23.32;100.00
42621;BME280;28252;53.336;-6.298;2023-07-13T00:19:54;100784.00;;;23.33;100.00
42621;BME280;28252;53.336;-6.298;2023-07-13T00:20:29;100787.75;;;23.31;100.00
42621;BME280;28252;53.336;-6.298;2023-07-13T00:21:00;100784.00;;;23.33;100.00
42621;BME280;28252;53.336;-6.298;2023-07-13T00:21:38;100787.75;;;23.31;100.00
42621;BME280;28252;53.336;-6.298;2023-07-13T00:22:14;100788.59;;;23.32;100.00
42621;BME280;28252;53.336;-6.298;2023-07-13T00:22:47;100784.00;;;23.33;100.00
42621;BME280;28252;53.336;-6.298;2023-07-13T00:23:23;100780.44;;;23.32;100.00
42621;BME280;28252;53.336;-6.298;2023-07-13T00:23:56;100782.31;;;23.31;100.00
42621;BME280;28252;53.336;-6.298;2023-07-13T00:24:27;100787.75;;;23.31;100.00
42621;BME280;28252;53.336;-6.298;2023-07-13T00:25:00;100788.59;;;23.32;100.00
42621;BME280;28252;53.336;-6.298;2023-07-13T00:25:34;100784.00;;;23.33;100.00
42621;BME280;28252;53.336;-6.298;2023-07-13T00:26:06;100780.44;;;23.32;100.00
42621;BME280;28252;53.336;-6.298;2023-07-13T00:26:41;100788.59;;;23.32;100.00
42621;BME280;28252;53.336;-6.298;2023-07-13T00:27:22;100784.00;;;23.33;100.00
42621;BME280;28252;53.336;-6.298;2023-07-13T00:27:53;100789.44;;;23.33;100.00
42621;BME280;28252;53.336;-6.298;2023-07-13T00:28:27;100784.00;;;23.33;100.00
42621;BME280;28252;53.336;-6.298;2023-07-13T00:28:58;100784.00;;;23.33;100.00
42621;BME280;28252;53.336;-6.298;2023-07-13T00:29:29;100787.75;;;23.31;100.00
42621;BME280;28252;53.336;-6.298;2023-07-13T00:30:07;100787.75;;;23.31;100.00
42621;BME280;28252;53.336;-6.298;2023-07-13T00:30:41;100787.75;;;23.31;100.00
42621;BME280;28252;53.336;-6.298;2023-07-13T00:31:12;100788.59;;;23.32;100.00
42621;BME280;28252;53.336;-6.298;2023-07-13T00:31:45;100796.75;;;23.32;100.00
42621;BME280;28252;53.336;-6.298;2023-07-13T00:32:19;100787.75;;;23.31;100.00
42621;BME280;28252;53.336;-6.298;2023-07-13T00:32:50;100789.44;;;23.33;100.00
42621;BME280;28252;53.336;-6.298;2023-07-13T00:33:26;100792.16;;;23.33;100.00
42621;BME280;28252;53.336;-6.298;2023-07-13T00:33:59;100789.44;;;23.33;100.00
42621;BME280;28252;53.336;-6.298;2023-07-13T00:34:35;100785.03;;;23.31;100.00
42621;BME280;28252;53.336;-6.298;2023-07-13T00:35:09;100789.44;;;23.33;100.00
42621;BME280;28252;53.336;-6.298;2023-07-13T00:35:45;100786.72;;;23.33;100.00
42621;BME280;28252;53.336;-6.298;2023-07-13T00:36:16;100790.47;;;23.31;100.00
42621;BME280;28252;53.336;-6.298;2023-07-13T00:36:49;100784.00;;;23.33;100.00
42621;BME280;28252;53.336;-6.298;2023-07-13T00:37:22;100789.44;;;23.33;100.00
42621;BME280;28252;53.336;-6.298;2023-07-13T00:37:53;100792.16;;;23.33;100.00
42621;BME280;28252;53.336;-6.298;2023-07-13T00:38:30;100790.47;;;23.31;100.00
42621;BME280;28252;53.336;-6.298;2023-07-13T00:39:03;100790.47;;;23.31;100.00
42621;BME280;28252;53.336;-6.298;2023-07-13T00:39:38;100783.34;;;23.30;100.00
42621;BME280;28252;53.336;-6.298;2023-07-13T00:40:10;100794.03;;;23.32;100.00
42621;BME280;28252;53.336;-6.298;2023-07-13T00:40:45;100787.75;;;23.31;100.00
42621;BME280;28252;53.336;-6.298;2023-07-13T00:41:22;100789.44;;;23.33;100.00
42621;BME280;28252;53.336;-6.298;2023-07-13T00:41:53;100785.03;;;23.31;100.00
42621;BME280;28252;53.336;-6.298;2023-07-13T00:42:27;100787.75;;;23.31;100.00
42621;BME280;28252;53.336;-6.298;2023-07-13T00:43:04;100781.50;;;23.31;100.00
42621;BME280;28252;53.336;-6.298;2023-07-13T00:43:41;100780.63;;;23.30;100.00
42621;BME280;28252;53.336;-6.298;2023-07-13T00:44:17;100787.75;;;23.31;100.00
42621;BME280;28252;53.336;-6.298;2023-07-13T00:45:06;100792.16;;;23.33;100.00
42621;BME280;28252;53.336;-6.298;2023-07-13T00:46:25;100785.03;;;23.31;100.00
42621;BME280;28252;53.336;-6.298;2023-07-13T00:46:34;100788.59;;;23.32;100.00
42621;BME280;28252;53.336;-6.298;2023-07-13T00:47:09;100783.34;;;23.30;100.00
42621;BME280;28252;53.336;-6.298;2023-07-13T00:47:44;100793.19;;;23.31;100.00
42621;BME280;28252;53.336;-6.298;2023-07-13T00:48:24;100790.47;;;23.31;100.00
42621;BME280;28252;53.336;-6.298;2023-07-13T00:49:00;100791.50;;;23.30;100.00
42621;BME280;28252;53.336;-6.298;2023-07-13T00:49:37;100793.19;;;23.31;100.00
42621;BME280;28252;53.336;-6.298;2023-07-13T00:50:11;100787.75;;;23.31;100.00
42621;BME280;28252;53.336;-6.298;2023-07-13T00:50:50;100787.75;;;23.31;100.00
42621;BME280;28252;53.336;-6.298;2023-07-13T00:51:31;100786.94;;;23.31;100.00
42621;BME280;28252;53.336;-6.298;2023-07-13T00:52:05;100790.47;;;23.31;100.00
42621;BME280;28252;53.336;-6.298;2023-07-13T00:52:43;100785.03;;;23.31;100.00
42621;BME280;28252;53.336;-6.298;2023-07-13T00:53:19;100786.94;;;23.31;100.00
42621;BME280;28252;53.336;-6.298;2023-07-13T00:53:51;100786.06;;;23.30;100.00
42621;BME280;28252;53.336;-6.298;2023-07-13T00:54:30;100792.38;;;23.31;100.00
42621;BME280;28252;53.336;-6.298;2023-07-13T00:55:03;100786.06;;;23.30;100.00
42621;BME280;28252;53.336;-6.298;2023-07-13T00:55:37;100786.06;;;23.30;100.00
42621;BME280;28252;53.336;-6.298;2023-07-13T00:56:16;100786.06;;;23.30;100.00
42621;BME280;28252;53.336;-6.298;2023-07-13T00:56:53;100787.75;;;23.31;100.00
42621;BME280;28252;53.336;-6.298;2023-07-13T00:57:26;100786.06;;;23.30;100.00
42621;BME280;28252;53.336;-6.298;2023-07-13T00:57:59;100786.06;;;23.30;100.00
42621;BME280;28252;53.336;-6.298;2023-07-13T00:58:38;100792.38;;;23.31;100.00
42621;BME280;28252;53.336;-6.298;2023-07-13T00:59:09;100786.06;;;23.30;100.00
42621;BME280;28252;53.336;-6.298;2023-07-13T00:59:50;100786.94;;;23.31;100.00
42621;BME280;28252;53.336;-6.298;2023-07-13T01:00:24;100779.78;;;23.30;100.00
42621;BME280;28252;53.336;-6.298;2023-07-13T01:00:58;100786.06;;;23.30;100.00
42621;BME280;28252;53.336;-6.298;2023-07-13T01:01:31;100784.41;;;23.29;100.00
42621;BME280;28252;53.336;-6.298;2023-07-13T01:02:03;100789.84;;;23.29;100.00
42621;BME280;28252;53.336;-6.298;2023-07-13T01:02:42;100781.69;;;23.29;100.00
42621;BME280;28252;53.336;-6.298;2023-07-13T01:03:18;100784.41;;;23.29;100.00
42621;BME280;28252;53.336;-6.298;2023-07-13T01:03:51;100784.41;;;23.29;100.00
42621;BME280;28252;53.336;-6.298;2023-07-13T01:04:24;100788.13;;;23.28;100.00
42621;BME280;28252;53.336;-6.298;2023-07-13T01:04:57;100791.50;;;23.30;100.00
42621;BME280;28252;53.336;-6.298;2023-07-13T01:05:28;100782.69;;;23.28;100.00
42621;BME280;28252;53.336;-6.298;2023-07-13T01:06:02;100784.41;;;23.29;100.00
42621;BME280;28252;53.336;-6.298;2023-07-13T01:06:36;100780.81;;;23.29;100.00
42621;BME280;28252;53.336;-6.298;2023-07-13T01:07:10;100781.69;;;23.29;100.00
42621;BME280;28252;53.336;-6.298;2023-07-13T01:07:44;100780.81;;;23.29;100.00
42621;BME280;28252;53.336;-6.298;2023-07-13T01:08:20;100774.53;;;23.28;100.00
42621;BME280;28252;53.336;-6.298;2023-07-13T01:08:56;100777.25;;;23.28;100.00
42621;BME280;28252;53.336;-6.298;2023-07-13T01:09:31;100777.25;;;23.28;100.00
42621;BME280;28252;53.336;-6.298;2023-07-13T01:10:05;100778.97;;;23.29;100.00
42621;BME280;28252;53.336;-6.298;2023-07-13T01:10:41;100773.72;;;23.28;100.00
42621;BME280;28252;53.336;-6.298;2023-07-13T01:11:18;100782.69;;;23.28;100.00
42621;BME280;28252;53.336;-6.298;2023-07-13T01:11:51;100778.97;;;23.29;100.00
42621;BME280;28252;53.336;-6.298;2023-07-13T01:12:25;100777.25;;;23.28;100.00
42621;BME280;28252;53.336;-6.298;2023-07-13T01:13:00;100775.38;;;23.29;100.00
42621;BME280;28252;53.336;-6.298;2023-07-13T01:13:31;100779.97;;;23.28;100.00
42621;BME280;28252;53.336;-6.298;2023-07-13T01:14:04;100779.16;;;23.28;100.00
42621;BME280;28252;53.336;-6.298;2023-07-13T01:14:40;100781.88;;;23.28;100.00
42621;BME280;28252;53.336;-6.298;2023-07-13T01:16:02;100788.13;;;23.28;100.00
42621;BME280;28252;53.336;-6.298;2023-07-13T01:16:37;100786.44;;;23.27;100.00
42621;BME280;28252;53.336;-6.298;2023-07-13T01:17:12;100787.47;;;23.26;100.00
42621;BME280;28252;53.336;-6.298;2023-07-13T01:17:45;100781.00;;;23.27;100.00
42621;BME280;28252;53.336;-6.298;2023-07-13T01:18:22;100783.72;;;23.27;100.00
42621;BME280;28252;53.336;-6.298;2023-07-13T01:18:55;100787.31;;;23.28;100.00
42621;BME280;28252;53.336;-6.298;2023-07-13T01:19:38;100789.16;;;23.27;100.00
42621;BME280;28252;53.336;-6.298;2023-07-13T01:20:14;100789.16;;;23.27;100.00
42621;BME280;28252;53.336;-6.298;2023-07-13T01:20:51;100783.72;;;23.27;100.00
42621;BME280;28252;53.336;-6.298;2023-07-13T01:21:22;100784.75;;;23.26;100.00
42621;BME280;28252;53.336;-6.298;2023-07-13T01:21:53;100786.44;;;23.27;100.00
42621;BME280;28252;53.336;-6.298;2023-07-13T01:22:26;100794.59;;;23.27;100.00
42621;BME280;28252;53.336;-6.298;2023-07-13T01:23:00;100791.88;;;23.27;100.00
42621;BME280;28252;53.336;-6.298;2023-07-13T01:23:36;100784.75;;;23.26;100.00
42621;BME280;28252;53.336;-6.298;2023-07-13T01:24:12;100787.47;;;23.26;100.00
42621;BME280;28252;53.336;-6.298;2023-07-13T01:24:46;100781.00;;;23.27;100.00
42621;BME280;28252;53.336;-6.298;2023-07-13T01:25:18;100784.75;;;23.26;100.00
42621;BME280;28252;53.336;-6.298;2023-07-13T01:25:54;100784.75;;;23.26;100.00
42621;BME280;28252;53.336;-6.298;2023-07-13T01:26:26;100778.50;;;23.26;100.00
42621;BME280;28252;53.336;-6.298;2023-07-13T01:27:00;100782.88;;;23.27;100.00
42621;BME280;28252;53.336;-6.298;2023-07-13T01:27:34;100787.66;;;23.25;100.00
42621;BME280;28252;53.336;-6.298;2023-07-13T01:28:07;100784.75;;;23.26;100.00
42621;BME280;28252;53.336;-6.298;2023-07-13T01:28:44;100784.75;;;23.26;100.00
42621;BME280;28252;53.336;-6.298;2023-07-13T01:29:15;100780.34;;;23.25;100.00
42621;BME280;28252;53.336;-6.298;2023-07-13T01:29:53;100783.94;;;23.26;100.00
42621;BME280;28252;53.336;-6.298;2023-07-13T01:30:37;100782.06;;;23.26;100.00
42621;BME280;28252;53.336;-6.298;2023-07-13T01:31:11;100778.69;;;23.24;100.00
42621;BME280;28252;53.336;-6.298;2023-07-13T01:31:42;100783.06;;;23.25;100.00
42621;BME280;28252;53.336;-6.298;2023-07-13T01:32:20;100780.34;;;23.25;100.00
42621;BME280;28252;53.336;-6.298;2023-07-13T01:32:55;100783.94;;;23.26;100.00
42621;BME280;28252;53.336;-6.298;2023-07-13T01:33:28;100778.50;;;23.26;100.00
42621;BME280;28252;53.336;-6.298;2023-07-13T01:34:04;100781.41;;;23.24;100.00
42621;BME280;28252;53.336;-6.298;2023-07-13T01:34:43;100773.25;;;23.24;100.00
42621;BME280;28252;53.336;-6.298;2023-07-13T01:35:17;100776.81;;;23.25;100.00
42621;BME280;28252;53.336;-6.298;2023-07-13T01:35:51;100776.97;;;23.23;100.00
42621;BME280;28252;53.336;-6.298;2023-07-13T01:36:24;100772.38;;;23.24;100.00
42621;BME280;28252;53.336;-6.298;2023-07-13T01:36:55;100769.66;;;23.24;100.00
42621;BME280;28252;53.336;-6.298;2023-07-13T01:37:26;100773.25;;;23.24;100.00
42621;BME280;28252;53.336;-6.298;2023-07-13T01:38:00;100774.09;;;23.25;100.00
42621;BME280;28252;53.336;-6.298;2023-07-13T01:38:34;100775.09;;;23.24;100.00
42621;BME280;28252;53.336;-6.298;2023-07-13T01:39:08;100774.28;;;23.23;100.00
42621;BME280;28252;53.336;-6.298;2023-07-13T01:39:44;100773.25;;;23.24;100.00
42621;BME280;28252;53.336;-6.298;2023-07-13T01:40:20;100774.28;;;23.23;100.00
42621;BME280;28252;53.336;-6.298;2023-07-13T01:40:53;100771.56;;;23.23;100.00
42621;BME280;28252;53.336;-6.298;2023-07-13T01:41:24;100768.84;;;23.23;100.00
42621;BME280;28252;53.336;-6.298;2023-07-13T01:41:59;100776.97;;;23.23;100.00
42621;BME280;28252;53.336;-6.298;2023-07-13T01:42:37;100771.56;;;23.23;100.00
42621;BME280;28252;53.336;-6.298;2023-07-13T01:43:15;100779.69;;;23.23;100.00
42621;BME280;28252;53.336;-6.298;2023-07-13T01:43:48;100769.84;;;23.22;100.00
42621;BME280;28252;53.336;-6.298;2023-07-13T01:44:28;100779.69;;;23.23;100.00
42621;BME280;28252;53.336;-6.298;2023-07-13T01:45:04;100774.28;;;23.23;100.00
42621;BME280;28252;53.336;-6.298;2023-07-13T01:45:38;100778.00;;;23.22;100.00
42621;BME280;28252;53.336;-6.298;2023-07-13T01:46:14;100767.13;;;23.22;100.00
42621;BME280;28252;53.336;-6.298;2023-07-13T01:46:47;100773.44;;;23.23;100.00
42621;BME280;28252;53.336;-6.298;2023-07-13T01:47:22;100769.84;;;23.22;100.00
42621;BME280;28252;53.336;-6.298;2023-07-13T01:47:55;100768.00;;;23.23;100.00
42621;BME280;28252;53.336;-6.298;2023-07-13T01:48:26;100770.72;;;23.23;100.00
42621;BME280;28252;53.336;-6.298;2023-07-13T01:48:59;100772.56;;;23.22;100.00
42621;BME280;28252;53.336;-6.298;2023-07-13T01:49:32;100769.03;;;23.22;100.00
42621;BME280;28252;53.336;-6.298;2023-07-13T01:50:05;100772.56;;;23.22;100.00
42621;BME280;28252;53.336;-6.298;2023-07-13T01:50:39;100767.13;;;23.22;100.00
42621;BME280;28252;53.336;-6.298;2023-07-13T01:51:10;100767.13;;;23.22;100.00
42621;BME280;28252;53.336;-6.298;2023-07-13T01:51:44;100770.91;;;23.21;100.00
42621;BME280;28252;53.336;-6.298;2023-07-13T01:52:15;100770.91;;;23.21;100.00
42621;BME280;28252;53.336;-6.298;2023-07-13T01:52:46;100770.91;;;23.21;100.00
42621;BME280;28252;53.336;-6.298;2023-07-13T01:53:18;100762.75;;;23.21;100.00
42621;BME280;28252;53.336;-6.298;2023-07-13T01:53:52;100764.41;;;23.22;100.00
42621;BME280;28252;53.336;-6.298;2023-07-13T01:54:28;100766.31;;;23.22;100.00
42621;BME280;28252;53.336;-6.298;2023-07-13T01:54:59;100768.19;;;23.21;100.00
42621;BME280;28252;53.336;-6.298;2023-07-13T01:55:32;100771.91;;;23.20;100.00
42621;BME280;28252;53.336;-6.298;2023-07-13T01:56:09;100770.91;;;23.21;100.00
42621;BME280;28252;53.336;-6.298;2023-07-13T01:56:43;100771.91;;;23.20;100.00
42621;BME280;28252;53.336;-6.298;2023-07-13T01:57:21;100770.06;;;23.21;100.00
42621;BME280;28252;53.336;-6.298;2023-07-13T01:57:57;100770.06;;;23.21;100.00
42621;BME280;28252;53.336;-6.298;2023-07-13T01:58:32;100771.91;;;23.20;100.00
42621;BME280;28252;53.336;-6.298;2023-07-13T01:59:08;100779.06;;;23.21;100.00
42621;BME280;28252;53.336;-6.298;2023-07-13T01:59:44;100777.34;;;23.20;100.00
42621;BME280;28252;53.336;-6.298;2023-07-13T02:00:20;100768.38;;;23.20;100.00
42621;BME280;28252;53.336;-6.298;2023-07-13T02:00:53;100771.91;;;23.20;100.00
42621;BME280;28252;53.336;-6.298;2023-07-13T02:01:27;100769.22;;;23.20;100.00
42621;BME280;28252;53.336;-6.298;2023-07-13T02:02:03;100774.63;;;23.20;100.00
42621;BME280;28252;53.336;-6.298;2023-07-13T02:02:36;100771.91;;;23.20;100.00
42621;BME280;28252;53.336;-6.298;2023-07-13T02:03:07;100771.91;;;23.20;100.00
42621;BME280;28252;53.336;-6.298;2023-07-13T02:03:42;100771.91;;;23.20;100.00
42621;BME280;28252;53.336;-6.298;2023-07-13T02:04:14;100768.38;;;23.20;100.00
42621;BME280;28252;53.336;-6.298;2023-07-13T02:04:45;100767.53;;;23.19;100.00
42621;BME280;28252;53.336;-6.298;2023-07-13T02:05:22;100775.50;;;23.21;100.00
42621;BME280;28252;53.336;-6.298;2023-07-13T02:05:53;100777.34;;;23.20;100.00
42621;BME280;28252;53.336;-6.298;2023-07-13T02:06:29;100778.41;;;23.19;100.00
42621;BME280;28252;53.336;-6.298;2023-07-13T02:07:02;100772.97;;;23.19;100.00
42621;BME280;28252;53.336;-6.298;2023-07-13T02:07:36;100776.53;;;23.20;100.00
42621;BME280;28252;53.336;-6.298;2023-07-13T02:08:11;100770.25;;;23.19;100.00
42621;BME280;28252;53.336;-6.298;2023-07-13T02:08:45;100765.84;;;23.18;100.00
42621;BME280;28252;53.336;-6.298;2023-07-13T02:09:18;100770.25;;;23.19;100.00
42621;BME280;28252;53.336;-6.298;2023-07-13T02:09:54;100769.38;;;23.19;100.00
42621;BME280;28252;53.336;-6.298;2023-07-13T02:10:25;100774.00;;;23.18;100.00
42621;BME280;28252;53.336;-6.298;2023-07-13T02:11:02;100774.81;;;23.19;100.00
42621;BME280;28252;53.336;-6.298;2023-07-13T02:11:36;100772.09;;;23.19;100.00
42621;BME280;28252;53.336;-6.298;2023-07-13T02:12:11;100773.16;;;23.18;100.00
42621;BME280;28252;53.336;-6.298;2023-07-13T02:12:45;100771.28;;;23.18;100.00
42621;BME280;28252;53.336;-6.298;2023-07-13T02:13:20;100776.72;;;23.18;100.00
42621;BME280;28252;53.336;-6.298;2023-07-13T02:13:54;100776.72;;;23.18;100.00
42621;BME280;28252;53.336;-6.298;2023-07-13T02:14:32;100772.09;;;23.19;100.00
42621;BME280;28252;53.336;-6.298;2023-07-13T02:15:05;100774.19;;;23.17;100.00
42621;BME280;28252;53.336;-6.298;2023-07-13T02:15:39;100771.28;;;23.18;100.00
42621;BME280;28252;53.336;-6.298;2023-07-13T02:16:11;100770.44;;;23.18;100.00
42621;BME280;28252;53.336;-6.298;2023-07-13T02:16:45;100772.28;;;23.17;100.00
42621;BME280;28252;53.336;-6.298;2023-07-13T02:17:18;100781.31;;;23.18;100.00
42621;BME280;28252;53.336;-6.298;2023-07-13T02:17:51;100770.44;;;23.18;100.00
42621;BME280;28252;53.336;-6.298;2023-07-13T02:18:24;100767.91;;;23.16;100.00
42621;BME280;28252;53.336;-6.298;2023-07-13T02:18:57;100768.75;;;23.17;100.00
42621;BME280;28252;53.336;-6.298;2023-07-13T02:19:28;100767.91;;;23.16;100.00
42621;BME280;28252;53.336;-6.298;2023-07-13T02:20:02;100771.47;;;23.17;100.00
42621;BME280;28252;53.336;-6.298;2023-07-13T02:20:36;100772.28;;;23.17;100.00
42621;BME280;28252;53.336;-6.298;2023-07-13T02:21:09;100770.63;;;23.16;100.00
42621;BME280;28252;53.336;-6.298;2023-07-13T02:21:44;100774.19;;;23.17;100.00
42621;BME280;28252;53.336;-6.298;2023-07-13T02:22:17;100765.19;;;23.16;100.00
42621;BME280;28252;53.336;-6.298;2023-07-13T02:22:54;100767.91;;;23.16;100.00
42621;BME280;28252;53.336;-6.298;2023-07-13T02:23:29;100767.06;;;23.16;100.00
42621;BME280;28252;53.336;-6.298;2023-07-13T02:24:00;100773.34;;;23.16;100.00
42621;BME280;28252;53.336;-6.298;2023-07-13T02:24:34;100773.34;;;23.16;100.00
42621;BME280;28252;53.336;-6.298;2023-07-13T02:25:05;100767.91;;;23.16;100.00
42621;BME280;28252;53.336;-6.298;2023-07-13T02:25:41;100775.00;;;23.17;100.00
42621;BME280;28252;53.336;-6.298;2023-07-13T02:26:14;100769.78;;;23.16;100.00
42621;BME280;28252;53.336;-6.298;2023-07-13T02:26:47;100773.34;;;23.16;100.00
42621;BME280;28252;53.336;-6.298;2023-07-13T02:27:21;100776.06;;;23.16;100.00
42621;BME280;28252;53.336;-6.298;2023-07-13T02:27:56;100772.50;;;23.16;100.00
42621;BME280;28252;53.336;-6.298;2023-07-13T02:28:29;100782.50;;;23.15;100.00
42621;BME280;28252;53.336;-6.298;2023-07-13T02:29:07;100777.94;;;23.16;100.00
42621;BME280;28252;53.336;-6.298;2023-07-13T02:29:41;100772.50;;;23.16;100.00
42621;BME280;28252;53.336;-6.298;2023-07-13T02:30:20;100774.38;;;23.15;100.00
42621;BME280;28252;53.336;-6.298;2023-07-13T02:31:08;100776.25;;;23.15;100.00
42621;BME280;28252;53.336;-6.298;2023-07-13T02:31:42;100776.25;;;23.15;100.00
42621;BME280;28252;53.336;-6.298;2023-07-13T02:32:13;100776.25;;;23.15;100.00
42621;BME280;28252;53.336;-6.298;2023-07-13T02:32:44;100774.38;;;23.15;100.00
42621;BME280;28252;53.336;-6.298;2023-07-13T02:33:17;100780.84;;;23.14;100.00
42621;BME280;28252;53.336;-6.298;2023-07-13T02:33:54;100778.97;;;23.15;100.00
42621;BME280;28252;53.336;-6.298;2023-07-13T02:34:25;100777.06;;;23.15;100.00
42621;BME280;28252;53.336;-6.298;2023-07-13T02:34:58;100775.41;;;23.14;100.00
42621;BME280;28252;53.336;-6.298;2023-07-13T02:35:35;100775.41;;;23.14;100.00
42621;BME280;28252;53.336;-6.298;2023-07-13T02:36:11;100780.84;;;23.14;100.00
42621;BME280;28252;53.336;-6.298;2023-07-13T02:36:43;100779.16;;;23.13;100.00
42621;BME280;28252;53.336;-6.298;2023-07-13T02:37:16;100771.81;;;23.13;100.00
42621;BME280;28252;53.336;-6.298;2023-07-13T02:37:47;100772.88;;;23.12;100.00
42621;BME280;28252;53.336;-6.298;2023-07-13T02:38:20;100777.44;;;23.12;100.00
42621;BME280;28252;53.336;-6.298;2023-07-13T02:38:51;100779.16;;;23.13;100.00
42621;BME280;28252;53.336;-6.298;2023-07-13T02:39:22;100773.91;;;23.11;100.00
42621;BME280;28252;53.336;-6.298;2023-07-13T02:39:55;100773.72;;;23.13;100.00
42621;BME280;28252;53.336;-6.298;2023-07-13T02:40:33;100782.88;;;23.12;100.00
42621;BME280;28252;53.336;-6.298;2023-07-13T02:41:09;100777.44;;;23.12;100.00
42621;BME280;28252;53.336;-6.298;2023-07-13T02:41:44;100772.88;;;23.12;100.00
42621;BME280;28252;53.336;-6.298;2023-07-13T02:42:20;100777.44;;;23.12;100.00
42621;BME280;28252;53.336;-6.298;2023-07-13T02:42:56;100777.44;;;23.12;100.00
42621;BME280;28252;53.336;-6.298;2023-07-13T02:43:29;100774.72;;;23.12;100.00
42621;BME280;28252;53.336;-6.298;2023-07-13T02:44:02;100775.78;;;23.11;100.00
42621;BME280;28252;53.336;-6.298;2023-07-13T02:44:45;100782.06;;;23.11;100.00
42621;BME280;28252;53.336;-6.298;2023-07-13T02:45:25;100776.63;;;23.11;100.00
42621;BME280;28252;53.336;-6.298;2023-07-13T02:46:01;100782.88;;;23.12;100.00
42621;BME280;28252;53.336;-6.298;2023-07-13T02:46:37;100778.50;;;23.11;100.00
42621;BME280;28252;53.336;-6.298;2023-07-13T02:47:11;100779.53;;;23.10;100.00
42621;BME280;28252;53.336;-6.298;2023-07-13T02:47:46;100784.75;;;23.11;100.00
42621;BME280;28252;53.336;-6.298;2023-07-13T02:48:19;100779.53;;;23.10;100.00
42621;BME280;28252;53.336;-6.298;2023-07-13T02:48:53;100781.22;;;23.11;100.00
42621;BME280;28252;53.336;-6.298;2023-07-13T02:49:28;100780.38;;;23.10;100.00
42621;BME280;28252;53.336;-6.298;2023-07-13T02:50:02;100781.22;;;23.11;100.00
42621;BME280;28252;53.336;-6.298;2023-07-13T02:50:35;100778.50;;;23.11;100.00
42621;BME280;28252;53.336;-6.298;2023-07-13T02:51:13;100778.50;;;23.11;100.00
42621;BME280;28252;53.336;-6.298;2023-07-13T02:51:44;100775.78;;;23.11;100.00
42621;BME280;28252;53.336;-6.298;2023-07-13T02:52:17;100780.38;;;23.10;100.00
42621;BME280;28252;53.336;-6.298;2023-07-13T02:52:54;100778.69;;;23.09;100.00
42621;BME280;28252;53.336;-6.298;2023-07-13T02:53:25;100774.94;;;23.10;100.00
42621;BME280;28252;53.336;-6.298;2023-07-13T02:53:58;100778.50;;;23.11;100.00
42621;BME280;28252;53.336;-6.298;2023-07-13T02:54:34;100775.78;;;23.11;100.00
42621;BME280;28252;53.336;-6.298;2023-07-13T02:55:05;100789.38;;;23.11;100.00
42621;BME280;28252;53.336;-6.298;2023-07-13T02:55:39;100781.22;;;23.11;100.00
42621;BME280;28252;53.336;-6.298;2023-07-13T02:56:11;100780.38;;;23.10;100.00
42621;BME280;28252;53.336;-6.298;2023-07-13T02:56:45;100784.94;;;23.10;100.00